EDT,Max TemperatureF,Mean TemperatureF,Min TemperatureF,Max Dew PointF,MeanDew PointF,Min DewpointF,Max Humidity, Mean Humidity, Min Humidity, Max Sea Level PressureIn, Mean Sea Level PressureIn, Min Sea Level PressureIn, Max VisibilityMiles, Mean VisibilityMiles, Min VisibilityMiles, Max Wind SpeedMPH, Mean Wind SpeedMPH, Max Gust SpeedMPH,PrecipitationIn, CloudCover, Events, WindDirDegrees
2014-4-1,80,66,54,59,54,48,89,66,36,30.20,30.15,30.12,10,10,9,12,5,,0.00,0,,23
2014-4-2,82,72,62,61,58,53,84,67,37,30.21,30.16,30.12,10,10,10,10,7,,0.00,0,,88
2014-4-3,81,72,63,61,60,58,87,69,50,30.16,30.11,30.06,10,10,10,13,7,,0.00,0,,177
2014-4-4,82,73,64,65,62,59,90,73,45,30.07,30.04,30.02,10,10,6,15,6,,0.00,1,,190
2014-4-5,82,72,63,68,62,55,93,80,39,30.06,30.01,29.97,10,7,0,9,4,,0.00,1,Fog,106
2014-4-6,82,74,66,65,63,59,90,70,49,30.04,29.98,29.94,10,10,8,17,6,29,0.00,0,,174
2014-4-7,86,76,68,70,67,64,87,73,51,29.94,29.89,29.83,10,10,10,24,12,32,0.00,1,,176
2014-4-8,77,72,66,75,65,52,97,77,59,29.91,29.81,29.74,10,9,1,22,15,30,0.35,6,Rain,258
2014-4-9,70,65,60,55,51,47,83,60,49,30.19,30.05,29.91,10,10,10,21,14,28,0.02,2,Rain,313
2014-4-10,79,69,59,56,53,48,87,59,34,30.30,30.24,30.19,10,10,10,13,6,,0.00,1,,29
2014-4-11,82,70,59,63,57,52,81,61,39,30.27,30.20,30.13,10,10,10,13,7,,0.00,3,,72
2014-4-12,84,76,68,65,62,56,84,66,38,30.19,30.14,30.08,10,10,10,16,8,,0.00,1,,86
2014-4-13,84,76,68,65,62,59,81,65,43,30.14,30.08,30.00,10,10,10,17,9,24,0.00,3,,94
2014-4-14,84,78,71,69,65,60,88,71,44,30.02,29.95,29.90,10,10,10,17,11,22,0.00,3,,162
2014-4-15,82,72,64,74,68,55,93,83,73,30.00,29.88,29.82,10,9,2,28,14,38,0.07,6,Rain-Thunderstorm,231
2014-4-16,78,64,52,59,50,44,80,64,40,30.15,30.08,29.99,10,10,10,21,14,28,0.00,2,,47
2014-4-17,80,72,64,68,62,57,81,74,62,30.19,30.13,30.09,10,10,5,17,12,28,0.15,6,Rain,70
2014-4-18,77,72,66,71,67,65,94,87,79,30.12,30.01,29.92,10,9,0,33,12,40,0.51,6,Fog-Rain-Thunderstorm,146
2014-4-19,72,66,62,68,61,55,94,82,65,30.01,29.95,29.89,10,10,5,18,11,24,0.01,7,Rain,278
2014-4-20,73,67,62,60,58,57,90,79,63,30.09,30.04,29.98,10,10,7,15,11,,0.00,6,,354
2014-4-21,73,68,63,59,57,54,81,71,61,30.11,30.05,29.99,10,10,10,12,9,,0.00,7,,10
2014-4-22,75,68,61,61,59,57,90,73,57,30.00,29.95,29.89,10,10,10,10,5,,0.00,2,,314
2014-4-23,78,70,62,63,62,58,90,74,60,29.98,29.94,29.90,10,10,9,12,6,18,0.00,2,,287
2014-4-24,82,72,62,66,62,57,96,80,45,30.04,29.97,29.94,10,7,0,10,3,,0.00,2,Fog,298
2014-4-25,84,73,64,67,64,62,96,82,49,30.04,29.98,29.95,10,6,0,14,3,17,0.00,0,Fog,216
2014-4-26,84,73,64,68,65,64,97,79,53,30.04,29.99,29.96,10,8,1,13,4,,0.00,0,,310
2014-4-27,88,78,70,70,66,60,90,70,40,30.02,29.97,29.94,10,10,7,17,7,,0.00,0,,170
2014-4-28,89,81,73,72,68,54,94,73,30,29.97,29.93,29.88,10,10,10,18,8,24,0.00,1,,168
2014-4-29,91,82,73,73,71,69,91,75,52,30.00,29.92,29.86,10,10,10,20,10,21,0.00,2,,167
2014-4-30,89,80,73,73,70,66,91,74,53,30.06,30.01,29.94,10,10,10,17,11,22,0.00,3,,142